Archival Weather

Fukuoka

Fukuoka, Japan (RJFF)

Report from: Tuesday, August 16, 2022 7:30 AM JST
Current time: Sunday, November 27, 2022 6:51 PM JST

Current weather
Weather history
Weather forecast

Present weatherVCSH, thunderstorm with rain
Temperature28.0°C (82.4°F)
Heat index32.7°C (90.9°F)
Dew point25.0°C (77.0°F)
Winds 12 kts (6.2 m/s, 13.8 mph) South-Southeast (150°)
Visibility6.2 mi. (10 km)
Clouds Ceiling: Broken clouds 0 ft. (0 m)
Few clouds 800 ft. (244 m)
Scattered clouds 3,500 ft. (1,067 m)
Altimeter29.74 in.Hg (1007 mB)
Relative humidity84 %
Density altitude2,129 ft. (649 m)
Flight conditions Low Instrument Meteorological Conditions
Raw dataRJFF 152230Z 15012KT 9999 VCSH FEW008 SCT035 BKN/// 28/25 Q1007 TEMPO 3000 TSRA BR
An error has occurred. This application may no longer respond until reloaded. Reload 🗙